sensor_id;sensor_type;location;lat;lon;timestamp;pressure;altitude;pressure_sealevel;temperature;humidity
20156;BME280;10238;49.556;10.956;2022-07-29T00:01:45;98107.41;;;19.67;62.71
20156;BME280;10238;49.556;10.956;2022-07-29T00:04:14;98107.03;;;19.64;62.46
20156;BME280;10238;49.556;10.956;2022-07-29T00:06:45;98094.56;;;19.63;62.36
20156;BME280;10238;49.556;10.956;2022-07-29T00:09:16;98101.03;;;19.62;62.72
20156;BME280;10238;49.556;10.956;2022-07-29T00:11:45;98095.00;;;19.60;61.88
20156;BME280;10238;49.556;10.956;2022-07-29T00:14:14;98092.53;;;19.58;62.70
20156;BME280;10238;49.556;10.956;2022-07-29T00:16:43;98092.75;;;19.57;64.19
20156;BME280;10238;49.556;10.956;2022-07-29T00:19:12;98085.09;;;19.54;64.49
20156;BME280;10238;49.556;10.956;2022-07-29T00:21:41;98075.56;;;19.51;64.11
20156;BME280;10238;49.556;10.956;2022-07-29T00:24:10;98076.84;;;19.49;62.54
20156;BME280;10238;49.556;10.956;2022-07-29T00:26:41;98072.47;;;19.48;63.16
20156;BME280;10238;49.556;10.956;2022-07-29T00:29:10;98076.22;;;19.47;64.09
20156;BME280;10238;49.556;10.956;2022-07-29T00:31:59;98068.56;;;19.44;64.62
20156;BME280;10238;49.556;10.956;2022-07-29T00:34:29;98064.44;;;19.41;64.11
20156;BME280;10238;49.556;10.956;2022-07-29T00:37:15;98066.28;;;19.41;64.47
20156;BME280;10238;49.556;10.956;2022-07-29T00:39:44;98069.00;;;19.41;64.06
20156;BME280;10238;49.556;10.956;2022-07-29T00:42:14;98069.00;;;19.41;62.68
20156;BME280;10238;49.556;10.956;2022-07-29T00:44:44;98066.28;;;19.41;62.86
20156;BME280;10238;49.556;10.956;2022-07-29T00:47:13;98072.75;;;19.40;62.74
20156;BME280;10238;49.556;10.956;2022-07-29T00:49:42;98060.09;;;19.40;63.37
20156;BME280;10238;49.556;10.956;2022-07-29T00:52:14;98067.34;;;19.40;63.08
20156;BME280;10238;49.556;10.956;2022-07-29T00:54:44;98067.34;;;19.40;62.90
20156;BME280;10238;49.556;10.956;2022-07-29T00:57:14;98065.72;;;19.39;63.49
20156;BME280;10238;49.556;10.956;2022-07-29T00:59:43;98065.72;;;19.39;62.95
20156;BME280;10238;49.556;10.956;2022-07-29T01:02:13;98071.09;;;19.39;63.32
20156;BME280;10238;49.556;10.956;2022-07-29T01:04:45;98069.44;;;19.38;62.10
20156;BME280;10238;49.556;10.956;2022-07-29T01:07:15;98065.72;;;19.39;63.23
20156;BME280;10238;49.556;10.956;2022-07-29T01:09:46;98067.56;;;19.38;63.58
20156;BME280;10238;49.556;10.956;2022-07-29T01:12:21;98063.22;;;19.37;63.99
20156;BME280;10238;49.556;10.956;2022-07-29T01:14:53;98060.75;;;19.36;63.81
20156;BME280;10238;49.556;10.956;2022-07-29T01:17:28;98071.53;;;19.36;63.85
20156;BME280;10238;49.556;10.956;2022-07-29T01:20:07;98082.31;;;19.36;64.07
20156;BME280;10238;49.556;10.956;2022-07-29T01:23:33;98096.59;;;19.36;64.43
20156;BME280;10238;49.556;10.956;2022-07-29T01:26:45;98081.25;;;19.37;64.04
20156;BME280;10238;49.556;10.956;2022-07-29T01:29:27;98078.09;;;19.46;64.09
20156;BME280;10238;49.556;10.956;2022-07-29T01:32:11;98089.25;;;19.50;62.55
20156;BME280;10238;49.556;10.956;2022-07-29T01:35:03;98080.56;;;19.48;63.17
20156;BME280;10238;49.556;10.956;2022-07-29T01:37:41;98069.19;;;19.46;63.43
20156;BME280;10238;49.556;10.956;2022-07-29T01:40:20;98070.25;;;19.45;62.98
20156;BME280;10238;49.556;10.956;2022-07-29T01:42:55;98070.66;;;19.42;62.82
20156;BME280;10238;49.556;10.956;2022-07-29T01:45:37;98071.31;;;19.37;62.45
20156;BME280;10238;49.556;10.956;2022-07-29T01:48:18;98065.31;;;19.35;61.51
20156;BME280;10238;49.556;10.956;2022-07-29T01:50:56;98078.38;;;19.32;62.87
20156;BME280;10238;49.556;10.956;2022-07-29T01:53:34;98071.78;;;19.27;63.43
20156;BME280;10238;49.556;10.956;2022-07-29T01:56:08;98071.34;;;19.31;62.97
20156;BME280;10238;49.556;10.956;2022-07-29T01:58:41;98065.75;;;19.25;62.31
20156;BME280;10238;49.556;10.956;2022-07-29T02:01:14;98068.47;;;19.19;61.98
20156;BME280;10238;49.556;10.956;2022-07-29T02:03:47;98063.72;;;19.14;62.35
20156;BME280;10238;49.556;10.956;2022-07-29T02:06:22;98063.72;;;19.14;62.17
20156;BME280;10238;49.556;10.956;2022-07-29T02:08:52;98065.00;;;19.12;61.75
20156;BME280;10238;49.556;10.956;2022-07-29T02:11:22;98054.66;;;19.09;62.19
20156;BME280;10238;49.556;10.956;2022-07-29T02:13:54;98065.84;;;19.06;62.00
20156;BME280;10238;49.556;10.956;2022-07-29T02:16:30;98061.72;;;19.03;61.59
20156;BME280;10238;49.556;10.956;2022-07-29T02:19:03;98059.25;;;19.02;61.73
20156;BME280;10238;49.556;10.956;2022-07-29T02:21:35;98059.91;;;18.97;61.25
20156;BME280;10238;49.556;10.956;2022-07-29T02:24:05;98054.31;;;18.92;61.69
20156;BME280;10238;49.556;10.956;2022-07-29T02:26:37;98071.75;;;18.90;61.09
20156;BME280;10238;49.556;10.956;2022-07-29T02:29:09;98063.25;;;18.86;62.73
20156;BME280;10238;49.556;10.956;2022-07-29T02:31:42;98054.78;;;18.83;61.65
20156;BME280;10238;49.556;10.956;2022-07-29T02:34:17;98051.69;;;18.79;61.80
20156;BME280;10238;49.556;10.956;2022-07-29T02:36:47;98057.28;;;18.78;61.58
20156;BME280;10238;49.556;10.956;2022-07-29T02:39:18;98053.38;;;18.74;62.26
20156;BME280;10238;49.556;10.956;2022-07-29T02:41:51;98056.69;;;18.69;62.58
20156;BME280;10238;49.556;10.956;2022-07-29T02:44:24;98059.81;;;18.66;62.55
20156;BME280;10238;49.556;10.956;2022-07-29T02:47:12;98057.53;;;18.63;62.85
20156;BME280;10238;49.556;10.956;2022-07-29T02:49:53;98058.81;;;18.61;62.75
20156;BME280;10238;49.556;10.956;2022-07-29T02:52:29;98058.38;;;18.57;62.40
20156;BME280;10238;49.556;10.956;2022-07-29T02:55:06;98056.53;;;18.51;62.55
20156;BME280;10238;49.556;10.956;2022-07-29T02:57:43;98057.19;;;18.47;62.39
20156;BME280;10238;49.556;10.956;2022-07-29T03:00:23;98057.22;;;18.40;62.67
20156;BME280;10238;49.556;10.956;2022-07-29T03:03:03;98054.94;;;18.37;62.99
20156;BME280;10238;49.556;10.956;2022-07-29T03:05:32;98057.38;;;18.32;62.55
20156;BME280;10238;49.556;10.956;2022-07-29T03:08:09;98059.91;;;18.27;62.21
20156;BME280;10238;49.556;10.956;2022-07-29T03:10:43;98062.38;;;18.22;64.02
20156;BME280;10238;49.556;10.956;2022-07-29T03:13:14;98064.69;;;18.19;63.59
20156;BME280;10238;49.556;10.956;2022-07-29T03:15:45;98062.63;;;18.14;63.98
20156;BME280;10238;49.556;10.956;2022-07-29T03:18:16;98064.06;;;18.10;64.36
20156;BME280;10238;49.556;10.956;2022-07-29T03:20:45;98064.91;;;18.04;64.23
20156;BME280;10238;49.556;10.956;2022-07-29T03:23:19;98067.38;;;17.99;65.21
20156;BME280;10238;49.556;10.956;2022-07-29T03:25:50;98061.78;;;17.94;65.01
20156;BME280;10238;49.556;10.956;2022-07-29T03:28:19;98067.00;;;17.89;65.47
20156;BME280;10238;49.556;10.956;2022-07-29T03:30:49;98060.38;;;17.85;64.90
20156;BME280;10238;49.556;10.956;2022-07-29T03:33:19;98068.22;;;17.80;66.47
20156;BME280;10238;49.556;10.956;2022-07-29T03:35:48;98061.63;;;17.76;66.92
20156;BME280;10238;49.556;10.956;2022-07-29T03:38:17;98057.06;;;17.70;66.98
20156;BME280;10238;49.556;10.956;2022-07-29T03:40:53;98055.81;;;17.66;68.61
20156;BME280;10238;49.556;10.956;2022-07-29T03:43:23;98064.72;;;17.60;67.12
20156;BME280;10238;49.556;10.956;2022-07-29T03:45:55;98060.75;;;17.56;67.41
20156;BME280;10238;49.556;10.956;2022-07-29T03:48:30;98057.88;;;17.51;68.33
20156;BME280;10238;49.556;10.956;2022-07-29T03:51:01;98066.56;;;17.47;69.14
20156;BME280;10238;49.556;10.956;2022-07-29T03:53:30;98068.81;;;17.43;69.99
20156;BME280;10238;49.556;10.956;2022-07-29T03:56:02;98071.47;;;17.37;70.70
20156;BME280;10238;49.556;10.956;2022-07-29T03:58:32;98073.72;;;17.33;70.97
20156;BME280;10238;49.556;10.956;2022-07-29T04:01:02;98070.84;;;17.28;71.61
20156;BME280;10238;49.556;10.956;2022-07-29T04:03:34;98073.94;;;17.25;72.37
20156;BME280;10238;49.556;10.956;2022-07-29T04:06:05;98077.22;;;17.20;70.12
20156;BME280;10238;49.556;10.956;2022-07-29T04:08:35;98075.75;;;17.18;70.12
20156;BME280;10238;49.556;10.956;2022-07-29T04:11:05;98082.56;;;17.14;72.04
20156;BME280;10238;49.556;10.956;2022-07-29T04:13:37;98074.31;;;17.09;71.40
20156;BME280;10238;49.556;10.956;2022-07-29T04:16:06;98080.69;;;17.08;73.80
20156;BME280;10238;49.556;10.956;2022-07-29T04:18:36;98082.31;;;17.02;74.76
20156;BME280;10238;49.556;10.956;2022-07-29T04:21:05;98082.72;;;16.99;76.63
20156;BME280;10238;49.556;10.956;2022-07-29T04:23:34;98081.69;;;16.94;75.36
20156;BME280;10238;49.556;10.956;2022-07-29T04:26:20;98089.09;;;16.92;77.10
20156;BME280;10238;49.556;10.956;2022-07-29T04:28:49;98089.50;;;16.89;75.52
20156;BME280;10238;49.556;10.956;2022-07-29T04:31:18;98084.53;;;16.86;78.50
20156;BME280;10238;49.556;10.956;2022-07-29T04:33:53;98085.75;;;16.83;80.62
20156;BME280;10238;49.556;10.956;2022-07-29T04:36:22;98083.69;;;16.79;78.01
20156;BME280;10238;49.556;10.956;2022-07-29T04:38:56;98085.75;;;16.77;80.81
20156;BME280;10238;49.556;10.956;2022-07-29T04:41:25;98086.16;;;16.74;79.52
20156;BME280;10238;49.556;10.956;2022-07-29T04:44:00;98090.69;;;16.73;80.57
20156;BME280;10238;49.556;10.956;2022-07-29T04:46:39;98088.00;;;16.73;78.57
20156;BME280;10238;49.556;10.956;2022-07-29T04:49:09;98093.16;;;16.75;80.38
20156;BME280;10238;49.556;10.956;2022-07-29T04:51:38;98092.31;;;16.74;80.95
20156;BME280;10238;49.556;10.956;2022-07-29T04:54:07;98096.91;;;16.74;79.23
20156;BME280;10238;49.556;10.956;2022-07-29T04:56:36;98100.19;;;16.76;79.71
20156;BME280;10238;49.556;10.956;2022-07-29T04:59:05;98094.63;;;16.77;77.33
20156;BME280;10238;49.556;10.956;2022-07-29T05:01:34;98106.00;;;16.79;77.49
20156;BME280;10238;49.556;10.956;2022-07-29T05:04:03;98098.78;;;16.80;78.72
20156;BME280;10238;49.556;10.956;2022-07-29T05:06:34;98106.41;;;16.83;80.30
20156;BME280;10238;49.556;10.956;2022-07-29T05:09:03;98110.56;;;16.85;81.20
20156;BME280;10238;49.556;10.956;2022-07-29T05:11:32;98110.16;;;16.88;79.73
20156;BME280;10238;49.556;10.956;2022-07-29T05:14:01;98101.91;;;16.90;79.28
20156;BME280;10238;49.556;10.956;2022-07-29T05:16:30;98111.41;;;16.92;79.13
20156;BME280;10238;49.556;10.956;2022-07-29T05:18:59;98113.50;;;16.97;80.28
20156;BME280;10238;49.556;10.956;2022-07-29T05:21:28;98109.19;;;17.02;81.89
20156;BME280;10238;49.556;10.956;2022-07-29T05:23:58;98113.94;;;17.07;79.11
20156;BME280;10238;49.556;10.956;2022-07-29T05:26:27;98103.25;;;17.13;82.91
20156;BME280;10238;49.556;10.956;2022-07-29T05:28:56;98106.78;;;17.20;85.45
20156;BME280;10238;49.556;10.956;2022-07-29T05:31:25;98104.09;;;17.27;87.75
20156;BME280;10238;49.556;10.956;2022-07-29T05:33:54;98111.97;;;17.35;90.24
20156;BME280;10238;49.556;10.956;2022-07-29T05:36:23;98105.78;;;17.41;83.63
20156;BME280;10238;49.556;10.956;2022-07-29T05:38:52;98105.81;;;17.48;89.16
20156;BME280;10238;49.556;10.956;2022-07-29T05:41:23;98111.03;;;17.56;86.60
20156;BME280;10238;49.556;10.956;2022-07-29T05:43:53;98110.41;;;17.67;83.73
20156;BME280;10238;49.556;10.956;2022-07-29T05:46:22;98099.25;;;17.76;78.68
20156;BME280;10238;49.556;10.956;2022-07-29T05:48:51;98103.81;;;17.82;77.66
20156;BME280;10238;49.556;10.956;2022-07-29T05:51:20;98100.50;;;17.87;78.72
20156;BME280;10238;49.556;10.956;2022-07-29T05:53:49;98097.38;;;17.96;77.99
20156;BME280;10238;49.556;10.956;2022-07-29T05:56:18;98097.19;;;18.04;77.75
20156;BME280;10238;49.556;10.956;2022-07-29T05:58:48;98097.59;;;18.14;75.80
20156;BME280;10238;49.556;10.956;2022-07-29T06:01:18;98099.22;;;18.28;79.21
20156;BME280;10238;49.556;10.956;2022-07-29T06:03:47;98095.28;;;18.44;77.60
20156;BME280;10238;49.556;10.956;2022-07-29T06:06:17;98095.88;;;18.65;75.70
20156;BME280;10238;49.556;10.956;2022-07-29T06:08:46;98092.50;;;18.83;74.57
20156;BME280;10238;49.556;10.956;2022-07-29T06:11:15;98099.47;;;19.03;74.46
20156;BME280;10238;49.556;10.956;2022-07-29T06:13:44;98094.78;;;19.23;74.65
20156;BME280;10238;49.556;10.956;2022-07-29T06:16:15;98101.97;;;19.43;71.27
20156;BME280;10238;49.556;10.956;2022-07-29T06:18:56;98104.94;;;19.66;69.37
20156;BME280;10238;49.556;10.956;2022-07-29T06:21:25;98106.66;;;19.85;70.03
20156;BME280;10238;49.556;10.956;2022-07-29T06:23:54;98108.81;;;20.01;68.30
20156;BME280;10238;49.556;10.956;2022-07-29T06:26:24;98107.41;;;20.23;66.32
20156;BME280;10238;49.556;10.956;2022-07-29T06:28:58;98103.91;;;20.40;67.35
20156;BME280;10238;49.556;10.956;2022-07-29T06:31:28;98100.50;;;20.51;67.77
20156;BME280;10238;49.556;10.956;2022-07-29T06:33:57;98095.06;;;20.69;66.19
20156;BME280;10238;49.556;10.956;2022-07-29T06:36:27;98100.50;;;20.87;67.14
20156;BME280;10238;49.556;10.956;2022-07-29T06:38:56;98089.72;;;21.05;66.20
20156;BME280;10238;49.556;10.956;2022-07-29T06:41:25;98098.16;;;21.27;65.42
20156;BME280;10238;49.556;10.956;2022-07-29T06:43:54;98099.88;;;21.51;66.34
20156;BME280;10238;49.556;10.956;2022-07-29T06:46:23;98101.66;;;21.75;65.23
20156;BME280;10238;49.556;10.956;2022-07-29T06:48:54;98097.09;;;21.99;63.35
20156;BME280;10238;49.556;10.956;2022-07-29T06:51:24;98091.94;;;22.20;63.10
20156;BME280;10238;49.556;10.956;2022-07-29T06:56:31;98091.25;;;22.71;61.42
20156;BME280;10238;49.556;10.956;2022-07-29T06:59:09;98089.69;;;22.86;59.91
20156;BME280;10238;49.556;10.956;2022-07-29T07:01:40;98092.81;;;23.06;61.21
20156;BME280;10238;49.556;10.956;2022-07-29T07:04:12;98102.34;;;23.32;60.54
20156;BME280;10238;49.556;10.956;2022-07-29T07:06:42;98101.88;;;23.52;59.32
20156;BME280;10238;49.556;10.956;2022-07-29T07:09:11;98093.53;;;23.70;57.29
20156;BME280;10238;49.556;10.956;2022-07-29T07:11:40;98098.97;;;23.98;59.18
20156;BME280;10238;49.556;10.956;2022-07-29T07:14:09;98098.72;;;24.32;56.67
20156;BME280;10238;49.556;10.956;2022-07-29T07:16:38;98087.88;;;24.54;55.90
20156;BME280;10238;49.556;10.956;2022-07-29T07:19:07;98082.84;;;24.79;54.59
20156;BME280;10238;49.556;10.956;2022-07-29T07:21:37;98086.91;;;24.98;56.12
20156;BME280;10238;49.556;10.956;2022-07-29T07:24:07;98086.63;;;25.21;52.40
20156;BME280;10238;49.556;10.956;2022-07-29T07:26:36;98077.19;;;25.28;54.49
20156;BME280;10238;49.556;10.956;2022-07-29T07:29:06;98079.31;;;25.43;53.22
20156;BME280;10238;49.556;10.956;2022-07-29T07:31:36;98080.84;;;25.61;54.42
20156;BME280;10238;49.556;10.956;2022-07-29T07:34:06;98085.78;;;25.90;51.27
20156;BME280;10238;49.556;10.956;2022-07-29T07:36:36;98072.41;;;26.15;52.55
20156;BME280;10238;49.556;10.956;2022-07-29T07:39:05;98075.06;;;26.47;52.43
20156;BME280;10238;49.556;10.956;2022-07-29T07:41:34;98071.13;;;26.64;50.59
20156;BME280;10238;49.556;10.956;2022-07-29T07:44:04;98061.97;;;26.85;52.16
20156;BME280;10238;49.556;10.956;2022-07-29T07:46:33;98063.13;;;26.94;50.59
20156;BME280;10238;49.556;10.956;2022-07-29T07:49:04;98057.47;;;27.16;51.69
20156;BME280;10238;49.556;10.956;2022-07-29T07:51:34;98068.75;;;27.30;49.59
20156;BME280;10238;49.556;10.956;2022-07-29T07:54:04;98059.75;;;27.39;50.04
20156;BME280;10238;49.556;10.956;2022-07-29T07:56:33;98058.44;;;27.62;49.20
20156;BME280;10238;49.556;10.956;2022-07-29T07:59:02;98065.81;;;27.81;49.28
20156;BME280;10238;49.556;10.956;2022-07-29T08:01:31;98066.09;;;27.75;48.29
20156;BME280;10238;49.556;10.956;2022-07-29T08:04:20;98066.34;;;27.43;48.31
20156;BME280;10238;49.556;10.956;2022-07-29T08:06:55;98063.00;;;27.31;49.07
20156;BME280;10238;49.556;10.956;2022-07-29T08:09:27;98060.22;;;27.21;49.56
20156;BME280;10238;49.556;10.956;2022-07-29T08:11:58;98061.34;;;27.30;48.45
20156;BME280;10238;49.556;10.956;2022-07-29T08:14:30;98054.31;;;27.54;49.80
20156;BME280;10238;49.556;10.956;2022-07-29T08:16:59;98057.69;;;28.01;50.48
20156;BME280;10238;49.556;10.956;2022-07-29T08:19:29;98054.66;;;28.33;49.10
20156;BME280;10238;49.556;10.956;2022-07-29T08:21:58;98050.59;;;28.45;48.48
20156;BME280;10238;49.556;10.956;2022-07-29T08:24:28;98049.94;;;28.73;47.93
20156;BME280;10238;49.556;10.956;2022-07-29T08:27:14;98046.06;;;28.99;48.03
20156;BME280;10238;49.556;10.956;2022-07-29T08:30:05;98055.81;;;29.26;46.32
20156;BME280;10238;49.556;10.956;2022-07-29T08:32:34;98054.06;;;29.45;46.77
20156;BME280;10238;49.556;10.956;2022-07-29T08:35:21;98046.44;;;29.80;46.54
20156;BME280;10238;49.556;10.956;2022-07-29T08:37:51;98052.19;;;30.22;46.18
20156;BME280;10238;49.556;10.956;2022-07-29T08:40:21;98047.44;;;30.56;44.89
20156;BME280;10238;49.556;10.956;2022-07-29T08:43:04;98036.56;;;30.98;45.31
20156;BME280;10238;49.556;10.956;2022-07-29T08:45:43;98042.84;;;31.28;44.58
20156;BME280;10238;49.556;10.956;2022-07-29T08:48:17;98043.59;;;31.70;43.37
20156;BME280;10238;49.556;10.956;2022-07-29T08:50:50;98040.84;;;32.07;43.49
20156;BME280;10238;49.556;10.956;2022-07-29T08:53:21;98038.84;;;32.26;42.49
20156;BME280;10238;49.556;10.956;2022-07-29T08:55:56;98038.94;;;32.21;40.59
20156;BME280;10238;49.556;10.956;2022-07-29T08:58:31;98038.72;;;32.18;40.63
20156;BME280;10238;49.556;10.956;2022-07-29T09:01:05;98032.41;;;32.49;42.43
20156;BME280;10238;49.556;10.956;2022-07-29T09:03:40;98035.16;;;32.49;40.98
20156;BME280;10238;49.556;10.956;2022-07-29T09:06:13;98035.09;;;32.68;39.34
20156;BME280;10238;49.556;10.956;2022-07-29T09:08:42;98035.06;;;32.54;39.90
20156;BME280;10238;49.556;10.956;2022-07-29T09:11:14;98036.56;;;32.33;38.90
20156;BME280;10238;49.556;10.956;2022-07-29T09:13:43;98024.97;;;32.50;41.69
20156;BME280;10238;49.556;10.956;2022-07-29T09:16:12;98021.56;;;32.98;39.99
20156;BME280;10238;49.556;10.956;2022-07-29T09:19:24;98020.50;;;33.35;40.73
20156;BME280;10238;49.556;10.956;2022-07-29T09:21:54;98019.25;;;33.55;39.35
20156;BME280;10238;49.556;10.956;2022-07-29T09:24:39;98026.59;;;33.59;38.48
20156;BME280;10238;49.556;10.956;2022-07-29T09:27:21;98021.69;;;33.56;39.86
20156;BME280;10238;49.556;10.956;2022-07-29T09:29:58;98013.53;;;33.87;38.42
20156;BME280;10238;49.556;10.956;2022-07-29T09:32:28;98020.78;;;33.96;36.83
20156;BME280;10238;49.556;10.956;2022-07-29T09:35:18;98016.31;;;33.87;38.96
20156;BME280;10238;49.556;10.956;2022-07-29T09:37:48;98018.69;;;34.02;39.30
20156;BME280;10238;49.556;10.956;2022-07-29T09:40:19;98015.75;;;33.98;37.84
20156;BME280;10238;49.556;10.956;2022-07-29T09:42:50;98010.41;;;34.02;37.46
20156;BME280;10238;49.556;10.956;2022-07-29T09:45:28;98015.50;;;34.08;38.19
20156;BME280;10238;49.556;10.956;2022-07-29T09:47:58;98018.44;;;34.12;36.12
20156;BME280;10238;49.556;10.956;2022-07-29T09:50:38;98009.13;;;33.99;36.77
20156;BME280;10238;49.556;10.956;2022-07-29T09:53:07;98011.81;;;33.91;36.03
20156;BME280;10238;49.556;10.956;2022-07-29T09:55:48;98009.75;;;33.96;38.46
20156;BME280;10238;49.556;10.956;2022-07-29T09:58:21;98016.09;;;33.83;36.90
20156;BME280;10238;49.556;10.956;2022-07-29T10:00:53;98015.72;;;33.76;37.09
20156;BME280;10238;49.556;10.956;2022-07-29T10:03:24;98014.78;;;33.32;36.95
20156;BME280;10238;49.556;10.956;2022-07-29T10:06:08;98012.25;;;33.08;37.74
20156;BME280;10238;49.556;10.956;2022-07-29T10:08:38;98017.56;;;33.18;39.18
20156;BME280;10238;49.556;10.956;2022-07-29T10:11:12;98011.91;;;33.50;37.31
20156;BME280;10238;49.556;10.956;2022-07-29T10:13:45;98008.44;;;33.58;35.19
20156;BME280;10238;49.556;10.956;2022-07-29T10:16:16;98008.44;;;33.31;35.93
20156;BME280;10238;49.556;10.956;2022-07-29T10:18:45;98004.00;;;33.22;37.99
20156;BME280;10238;49.556;10.956;2022-07-29T10:21:15;98008.91;;;33.38;37.28
20156;BME280;10238;49.556;10.956;2022-07-29T10:24:05;98018.28;;;33.24;35.88
20156;BME280;10238;49.556;10.956;2022-07-29T10:26:42;98008.72;;;32.94;37.44
20156;BME280;10238;49.556;10.956;2022-07-29T10:29:15;98013.63;;;32.97;38.83
20156;BME280;10238;49.556;10.956;2022-07-29T10:31:55;98007.06;;;32.93;38.15
20156;BME280;10238;49.556;10.956;2022-07-29T10:34:39;98009.94;;;33.01;38.68
20156;BME280;10238;49.556;10.956;2022-07-29T10:37:26;98001.84;;;33.32;38.77
20156;BME280;10238;49.556;10.956;2022-07-29T10:40:15;97994.38;;;33.46;36.91
20156;BME280;10238;49.556;10.956;2022-07-29T10:43:19;97995.56;;;33.89;36.78
20156;BME280;10238;49.556;10.956;2022-07-29T10:45:56;97988.78;;;33.73;36.11
20156;BME280;10238;49.556;10.956;2022-07-29T10:48:26;97993.66;;;33.76;37.17
20156;BME280;10238;49.556;10.956;2022-07-29T10:50:58;97984.28;;;33.99;36.98
20156;BME280;10238;49.556;10.956;2022-07-29T10:53:48;97985.28;;;34.34;36.10
20156;BME280;10238;49.556;10.956;2022-07-29T10:56:25;97982.47;;;34.47;36.46
20156;BME280;10238;49.556;10.956;2022-07-29T10:59:25;97976.03;;;34.60;37.15
20156;BME280;10238;49.556;10.956;2022-07-29T11:02:43;97968.06;;;34.98;37.07
20156;BME280;10238;49.556;10.956;2022-07-29T11:05:16;97962.31;;;35.34;35.71
20156;BME280;10238;49.556;10.956;2022-07-29T11:08:21;97958.41;;;35.52;36.02
20156;BME280;10238;49.556;10.956;2022-07-29T11:11:30;97950.59;;;35.88;35.48
20156;BME280;10238;49.556;10.956;2022-07-29T11:14:01;97954.13;;;36.14;34.72
20156;BME280;10238;49.556;10.956;2022-07-29T11:19:35;97957.56;;;36.74;33.37
20156;BME280;10238;49.556;10.956;2022-07-29T11:22:32;97956.13;;;36.97;34.13
20156;BME280;10238;49.556;10.956;2022-07-29T11:25:14;97955.06;;;37.10;33.66
20156;BME280;10238;49.556;10.956;2022-07-29T11:27:45;97949.16;;;37.20;32.50
20156;BME280;10238;49.556;10.956;2022-07-29T11:30:15;97956.34;;;37.21;32.18
20156;BME280;10238;49.556;10.956;2022-07-29T11:32:45;97954.44;;;37.34;33.42
20156;BME280;10238;49.556;10.956;2022-07-29T11:35:18;97940.25;;;37.35;32.53
20156;BME280;10238;49.556;10.956;2022-07-29T11:38:24;97946.38;;;37.20;33.78
20156;BME280;10238;49.556;10.956;2022-07-29T11:41:21;97945.53;;;37.49;33.26
20156;BME280;10238;49.556;10.956;2022-07-29T11:43:53;97934.94;;;37.83;32.74
20156;BME280;10238;49.556;10.956;2022-07-29T11:46:43;97936.00;;;38.11;33.34
20156;BME280;10238;49.556;10.956;2022-07-29T11:49:18;97933.00;;;38.28;30.73
20156;BME280;10238;49.556;10.956;2022-07-29T11:51:53;97935.81;;;38.40;31.00
20156;BME280;10238;49.556;10.956;2022-07-29T11:54:25;97925.97;;;38.43;31.12
20156;BME280;10238;49.556;10.956;2022-07-29T11:56:54;97916.44;;;38.64;30.75
20156;BME280;10238;49.556;10.956;2022-07-29T11:59:26;97915.97;;;38.74;31.70
20156;BME280;10238;49.556;10.956;2022-07-29T12:02:01;97912.38;;;38.98;30.54
20156;BME280;10238;49.556;10.956;2022-07-29T12:04:51;97910.53;;;39.02;31.06
20156;BME280;10238;49.556;10.956;2022-07-29T12:07:28;97915.53;;;38.97;30.05
20156;BME280;10238;49.556;10.956;2022-07-29T12:10:03;97908.19;;;38.68;31.03
20156;BME280;10238;49.556;10.956;2022-07-29T12:12:33;97902.97;;;38.42;31.23
20156;BME280;10238;49.556;10.956;2022-07-29T12:15:14;97902.13;;;38.42;31.58
20156;BME280;10238;49.556;10.956;2022-07-29T12:17:47;97894.41;;;38.71;30.88
20156;BME280;10238;49.556;10.956;2022-07-29T12:20:24;97892.09;;;38.98;31.30
20156;BME280;10238;49.556;10.956;2022-07-29T12:22:56;97880.50;;;39.08;30.32
20156;BME280;10238;49.556;10.956;2022-07-29T12:25:25;97871.31;;;39.19;30.37
20156;BME280;10238;49.556;10.956;2022-07-29T12:28:03;97872.53;;;39.34;30.63
20156;BME280;10238;49.556;10.956;2022-07-29T12:30:39;97866.88;;;39.30;27.99
20156;BME280;10238;49.556;10.956;2022-07-29T12:33:17;97873.72;;;39.21;29.76
20156;BME280;10238;49.556;10.956;2022-07-29T12:35:49;97877.88;;;38.75;29.74
20156;BME280;10238;49.556;10.956;2022-07-29T12:38:36;97891.44;;;37.75;31.10
20156;BME280;10238;49.556;10.956;2022-07-29T12:41:07;97896.25;;;37.66;30.44
20156;BME280;10238;49.556;10.956;2022-07-29T12:43:36;97887.16;;;37.57;32.48
20156;BME280;10238;49.556;10.956;2022-07-29T12:46:12;97892.97;;;37.85;33.27
20156;BME280;10238;49.556;10.956;2022-07-29T12:48:44;97878.41;;;38.20;32.42
20156;BME280;10238;49.556;10.956;2022-07-29T12:51:14;97870.56;;;38.58;32.70
20156;BME280;10238;49.556;10.956;2022-07-29T12:54:04;97860.56;;;38.94;32.66
20156;BME280;10238;49.556;10.956;2022-07-29T12:56:35;97863.34;;;38.94;31.87
20156;BME280;10238;49.556;10.956;2022-07-29T12:59:13;97854.06;;;39.02;31.54
20156;BME280;10238;49.556;10.956;2022-07-29T13:01:43;97859.38;;;39.19;31.72
20156;BME280;10238;49.556;10.956;2022-07-29T13:04:25;97851.31;;;39.29;31.71
20156;BME280;10238;49.556;10.956;2022-07-29T13:07:02;97845.59;;;39.50;31.15
20156;BME280;10238;49.556;10.956;2022-07-29T13:09:41;97840.81;;;39.62;30.55
20156;BME280;10238;49.556;10.956;2022-07-29T13:12:12;97843.47;;;39.19;29.80
20156;BME280;10238;49.556;10.956;2022-07-29T13:14:43;97836.34;;;38.94;30.47
20156;BME280;10238;49.556;10.956;2022-07-29T13:17:14;97844.59;;;38.78;30.84
20156;BME280;10238;49.556;10.956;2022-07-29T13:19:45;97842.09;;;38.73;30.49
20156;BME280;10238;49.556;10.956;2022-07-29T13:22:17;97847.16;;;38.59;29.80
20156;BME280;10238;49.556;10.956;2022-07-29T13:24:50;97851.06;;;38.34;30.76
20156;BME280;10238;49.556;10.956;2022-07-29T13:27:22;97850.63;;;38.20;31.08
20156;BME280;10238;49.556;10.956;2022-07-29T13:29:52;97842.81;;;38.02;30.89
20156;BME280;10238;49.556;10.956;2022-07-29T13:32:25;97844.50;;;37.82;30.17